EDDC/DRS METAR and TAF weather

Enter ICAO airport designator
Station Type Date Time Source
EDDC METAR 2020/09/22 07:50 UTC NOAA

EDDC 220750Z 15007KT CAVOK 18/11 Q1013 NOSIG


Station Type Date Time Source
EDDC Decoded METAR 2020/09/22 07:50 UTC NOAA

Dresden-Klotzsche, Germany (EDDC) 51-08N 013-45E 232M
Sep 22, 2020 - 03:50 AM EDT / 2020.09.22 0750 UTC
Wind: from the SSE (150 degrees) at 8 MPH (7 KT):0
Visibility: greater than 7 mile(s):0
Temperature: 64 F (18 C)
Dew Point: 51 F (11 C)
Relative Humidity: 63%
Pressure (altimeter): 29.91 in. Hg (1013 hPa)
ob: EDDC 220750Z 15007KT CAVOK 18/11 Q1013 NOSIG
cycle: 8

Station Type Date Time Source
EDDC TAF 2020/09/22 06:30 UTC NOAA

TAF EDDC 220500Z 2206/2306 16007KT CAVOK

Example: see airport list